Bromide, Oklahoma
Current Conditions -  °F | °C
As of 4:15 PM on Sunday 23 Nov 2014 (Local Time) from KAQR Reporting Station
Clear Clear  
Wind Chill: 70°   Ceiling: Unl
Heat Index: 70°   Visibility: 10mi
Dew Point: 36°   Wind: 17mph
Humidity: 28%   Direction: 260°W
Pressure: 29.37"   Gusts: 32mph
Location:  34.42°N, 96.5°W
Report Text: KAQR 232215Z AUTO 26015G28KT 10SM CLR 21/02 A2937 RMK AO2
Loading
Personal Weather Stations






























Interactive Weather Map New forecast layout! Learn more

10-Day Weather Forecast

Advertisements
Track Severe Weather on mobile